FCO weather

Leonardo da Vinci–Fiumicino Airport
Rome, Lazio, Italy

Public forecast

Using degrees Celsius for public forecast. Weather courtesy of forecast.io.

Current aviation weather report (METAR) for Leonardo da Vinci–Fiumicino Airport

Retrieved 2020/01/19 09:20 UTC (22 minutes ago):

LIRF 190920Z 07008KT CAVOK 09/06 Q1022 NOSIG

Aviation forecast (TAF) for Leonardo da Vinci–Fiumicino Airport

Retrieved 2020/01/19 06:00 UTC (4 hours ago):

TAF LIRF 190500Z 1906/2012 02008KT CAVOK